createdAt,value
2023-02-11T00:02:01.484Z,100676.92
2023-02-11T00:04:30.035Z,100674.17
2023-02-11T00:06:58.359Z,100672.69
2023-02-11T00:09:31.909Z,100677.02
2023-02-11T00:12:00.298Z,100676.52
2023-02-11T00:14:28.782Z,100677.35
2023-02-11T00:16:57.815Z,100680.95
2023-02-11T00:19:26.288Z,100680.27
2023-02-11T00:21:54.847Z,100678.98
2023-02-11T00:24:23.241Z,100678.96
2023-02-11T00:26:51.611Z,100674.63
2023-02-11T00:29:20.331Z,100676.52
2023-02-11T00:31:48.799Z,100674.00
2023-02-11T00:34:17.265Z,100672.90
2023-02-11T00:36:45.670Z,100672.39
2023-02-11T00:39:16.404Z,100672.46
2023-02-11T00:41:45.073Z,100670.70
2023-02-11T00:44:14.373Z,100665.77
2023-02-11T00:46:42.856Z,100662.24
2023-02-11T00:49:12.057Z,100661.79
2023-02-11T00:51:41.360Z,100653.77
2023-02-11T00:54:09.742Z,100654.56
2023-02-11T00:56:38.738Z,100660.02
2023-02-11T00:59:07.229Z,100656.09
2023-02-11T01:01:35.865Z,100650.55
2023-02-11T01:04:05.318Z,100652.52
2023-02-11T01:06:33.700Z,100653.63
2023-02-11T01:09:02.183Z,100653.37
2023-02-11T01:11:34.566Z,100654.64
2023-02-11T01:14:03.590Z,100653.34
2023-02-11T01:16:32.150Z,100652.59
2023-02-11T01:19:00.839Z,100655.27
2023-02-11T01:21:29.833Z,100655.89
2023-02-11T01:23:58.217Z,100659.80
2023-02-11T01:26:26.699Z,100661.56
2023-02-11T01:28:55.492Z,100652.65
2023-02-11T01:31:23.930Z,100654.18
2023-02-11T01:33:52.868Z,100652.23
2023-02-11T01:36:22.784Z,100651.11
2023-02-11T01:38:51.376Z,100653.90
2023-02-11T01:41:22.107Z,100654.08
2023-02-11T01:43:50.798Z,100652.91
2023-02-11T01:46:33.246Z,100641.36
2023-02-11T01:49:09.080Z,100637.23
2023-02-11T01:52:02.331Z,100635.91
2023-02-11T01:54:51.909Z,100622.31
2023-02-11T01:57:22.289Z,100629.50
2023-02-11T02:00:06.898Z,100626.06
2023-02-11T02:02:55.354Z,100620.21
2023-02-11T02:05:40.629Z,100616.66
2023-02-11T02:08:17.617Z,100614.15
2023-02-11T02:10:48.014Z,100608.36
2023-02-11T02:13:18.891Z,100612.31
2023-02-11T02:16:00.193Z,100614.84
2023-02-11T02:18:35.097Z,100613.08
2023-02-11T02:21:22.133Z,100610.98
2023-02-11T02:24:08.929Z,100612.38
2023-02-11T02:26:46.534Z,100610.88
2023-02-11T02:29:30.077Z,100612.63
2023-02-11T02:32:26.605Z,100612.67
2023-02-11T02:35:20.900Z,100602.81
2023-02-11T02:37:58.084Z,100611.48
2023-02-11T02:40:37.525Z,100612.25
2023-02-11T02:43:06.077Z,100614.61
2023-02-11T02:45:34.499Z,100612.29
2023-02-11T02:48:03.206Z,100607.66
2023-02-11T02:50:36.484Z,100606.52
2023-02-11T02:53:27.804Z,100608.90
2023-02-11T02:56:01.406Z,100615.50
2023-02-11T02:58:48.477Z,100598.30
2023-02-11T03:01:39.334Z,100612.40
2023-02-11T03:04:19.696Z,100608.44
2023-02-11T03:06:48.285Z,100601.44
2023-02-11T03:09:24.431Z,100599.27
2023-02-11T03:11:53.035Z,100591.55
2023-02-11T03:14:21.518Z,100590.77
2023-02-11T03:16:50.719Z,100591.80
2023-02-11T03:19:27.586Z,100590.15
2023-02-11T03:21:56.392Z,100589.70
2023-02-11T03:24:33.681Z,100594.65
2023-02-11T03:27:07.797Z,100589.80
2023-02-11T03:29:39.762Z,100586.70
2023-02-11T03:32:16.489Z,100582.63
2023-02-11T03:34:58.545Z,100580.53
2023-02-11T03:37:51.797Z,100580.58
2023-02-11T03:40:29.200Z,100581.14
2023-02-11T03:43:03.830Z,100560.77
2023-02-11T03:45:32.996Z,100571.66
2023-02-11T03:48:04.690Z,100567.81
2023-02-11T03:50:33.377Z,100565.15
2023-02-11T03:53:02.378Z,100563.81
2023-02-11T03:55:30.754Z,100561.69
2023-02-11T03:57:59.344Z,100563.89
2023-02-11T04:00:39.944Z,100565.01
2023-02-11T04:03:08.958Z,100557.09
2023-02-11T04:05:37.696Z,100561.54
2023-02-11T04:08:06.082Z,100550.86
2023-02-11T04:10:35.381Z,100545.98
2023-02-11T04:13:04.277Z,100539.19
2023-02-11T04:15:33.276Z,100533.16
2023-02-11T04:18:03.501Z,100525.65
2023-02-11T04:20:31.773Z,100525.48
2023-02-11T04:23:00.258Z,100524.48
2023-02-11T04:25:29.458Z,100520.25
2023-02-11T04:27:57.996Z,100521.34
2023-02-11T04:30:26.327Z,100515.66
2023-02-11T04:32:54.791Z,100513.21
2023-02-11T04:35:23.398Z,100502.54
2023-02-11T04:37:51.781Z,100505.58
2023-02-11T04:40:20.265Z,100498.98
2023-02-11T04:42:48.658Z,100504.13
2023-02-11T04:45:17.436Z,100498.27
2023-02-11T04:47:45.818Z,100497.17
2023-02-11T04:50:14.626Z,100501.19
2023-02-11T04:52:43.214Z,100502.21
2023-02-11T04:55:11.891Z,100501.46
2023-02-11T04:57:40.677Z,100495.62
2023-02-11T05:00:10.301Z,100490.75
2023-02-11T05:02:38.977Z,100493.86
2023-02-11T05:05:07.811Z,100495.19
2023-02-11T05:07:36.354Z,100495.23
2023-02-11T05:10:05.048Z,100496.36
2023-02-11T05:12:34.055Z,100493.57
2023-02-11T05:15:02.544Z,100493.88
2023-02-11T05:17:31.523Z,100485.90
2023-02-11T05:19:59.901Z,100480.34
2023-02-11T05:22:28.588Z,100474.84
2023-02-11T05:24:57.072Z,100472.86
2023-02-11T05:27:25.454Z,100475.34
2023-02-11T05:29:53.941Z,100476.83
2023-02-11T05:32:22.326Z,100478.23
2023-02-11T05:34:50.702Z,100473.67
2023-02-11T05:37:20.807Z,100467.73
2023-02-11T05:39:49.929Z,100467.22
2023-02-11T05:42:18.820Z,100466.42
2023-02-11T05:44:49.049Z,100467.79
2023-02-11T05:47:21.416Z,100462.30
2023-02-11T05:49:50.309Z,100451.03
2023-02-11T05:52:18.691Z,100442.15
2023-02-11T05:54:47.284Z,100437.41
2023-02-11T05:57:16.074Z,100439.08
2023-02-11T05:59:44.456Z,100440.35
2023-02-11T06:02:14.005Z,100439.02
2023-02-11T06:04:44.408Z,100433.23
2023-02-11T06:07:15.228Z,100421.59
2023-02-11T06:09:43.711Z,100421.02
2023-02-11T06:12:12.606Z,100415.59
2023-02-11T06:14:42.730Z,100412.55
2023-02-11T06:17:12.401Z,100411.95
2023-02-11T06:19:44.829Z,100404.02
2023-02-11T06:22:13.197Z,100397.36
2023-02-11T06:24:54.978Z,100393.61
2023-02-11T06:27:30.032Z,100392.09
2023-02-11T06:29:58.460Z,100392.92
2023-02-11T06:32:45.725Z,100394.20
2023-02-11T06:35:14.983Z,100383.39
2023-02-11T06:37:45.373Z,100380.19
2023-02-11T06:40:14.494Z,100376.95
2023-02-11T06:42:43.977Z,100385.76
2023-02-11T06:45:13.604Z,100386.78
2023-02-11T06:47:42.796Z,100380.55
2023-02-11T06:50:12.634Z,100378.09
2023-02-11T06:52:41.599Z,100372.82
2023-02-11T06:55:10.089Z,100365.25
2023-02-11T06:57:39.086Z,100378.73
2023-02-11T07:01:07.062Z,100373.40
2023-02-11T07:03:36.567Z,100377.36
2023-02-11T07:06:08.433Z,100379.38
2023-02-11T07:08:37.318Z,100377.45
2023-02-11T07:11:13.804Z,100369.89
2023-02-11T07:13:42.384Z,100366.68
2023-02-11T07:16:13.046Z,100364.77
2023-02-11T07:18:42.223Z,100366.58
2023-02-11T07:21:12.170Z,100366.20
2023-02-11T07:23:41.439Z,100361.63
2023-02-11T07:26:13.307Z,100363.48
2023-02-11T07:28:42.001Z,100364.23
2023-02-11T07:31:12.521Z,100364.53
2023-02-11T07:33:41.010Z,100358.08
2023-02-11T07:36:10.545Z,100356.41
2023-02-11T07:38:38.995Z,100350.23
2023-02-11T07:41:12.192Z,100345.15
2023-02-11T07:43:41.186Z,100338.09
2023-02-11T07:46:15.034Z,100326.66
2023-02-11T07:48:43.576Z,100316.83
2023-02-11T07:51:14.013Z,100308.55
2023-02-11T07:53:42.694Z,100302.61
2023-02-11T07:56:12.140Z,100299.02
2023-02-11T07:58:42.533Z,100300.95
2023-02-11T08:01:13.271Z,100294.47
2023-02-11T08:03:43.103Z,100292.38
2023-02-11T08:06:13.409Z,100294.52
2023-02-11T08:08:42.226Z,100296.42
2023-02-11T08:11:12.668Z,100290.99
2023-02-11T08:13:41.521Z,100280.81
2023-02-11T08:16:26.425Z,100278.14
2023-02-11T08:18:57.559Z,100282.41
2023-02-11T08:21:27.245Z,100285.59
2023-02-11T08:23:56.241Z,100284.40
2023-02-11T08:26:29.457Z,100281.52
2023-02-11T08:28:58.233Z,100280.71
2023-02-11T08:31:28.628Z,100272.20
2023-02-11T08:33:58.467Z,100274.50
2023-02-11T08:36:29.307Z,100272.84
2023-02-11T08:39:18.161Z,100276.02
2023-02-11T08:41:57.085Z,100270.63
2023-02-11T08:44:25.462Z,100261.38
2023-02-11T08:46:54.084Z,100254.01
2023-02-11T08:49:22.489Z,100255.48
2023-02-11T08:51:51.455Z,100255.39
2023-02-11T08:54:21.031Z,100248.55
2023-02-11T08:56:51.388Z,100247.85
2023-02-11T08:59:19.942Z,100247.47
2023-02-11T09:01:49.204Z,100257.13
2023-02-11T09:04:17.627Z,100248.34
2023-02-11T09:06:47.418Z,100242.66
2023-02-11T09:09:16.236Z,100237.21
2023-02-11T09:11:45.850Z,100229.71
2023-02-11T09:14:18.621Z,100215.08
2023-02-11T09:16:47.026Z,100220.45
2023-02-11T09:19:17.845Z,100215.41
2023-02-11T09:21:46.424Z,100219.83
2023-02-11T09:24:15.109Z,100217.99
2023-02-11T09:26:43.936Z,100214.18
2023-02-11T09:29:12.500Z,100210.37
2023-02-11T09:31:41.382Z,100213.33
2023-02-11T09:34:11.215Z,100204.52
2023-02-11T09:36:40.507Z,100197.71
2023-02-11T09:39:12.455Z,100186.84
2023-02-11T09:41:50.976Z,100177.69
2023-02-11T09:44:24.253Z,100167.84
2023-02-11T09:47:01.150Z,100165.96
2023-02-11T09:50:00.454Z,100155.37
2023-02-11T09:52:48.095Z,100155.96
2023-02-11T09:55:30.293Z,100155.29
2023-02-11T09:57:58.881Z,100151.16
2023-02-11T10:00:38.315Z,100151.35
2023-02-11T10:03:44.796Z,100143.14
2023-02-11T10:06:16.144Z,100137.84
2023-02-11T10:08:59.374Z,100127.65
2023-02-11T10:11:32.647Z,100121.07
2023-02-11T10:14:16.616Z,100115.40
2023-02-11T10:17:13.263Z,100109.85
2023-02-11T10:20:01.914Z,100109.48
2023-02-11T10:22:37.053Z,100105.41
2023-02-11T10:25:24.379Z,100099.45
2023-02-11T10:27:55.723Z,100095.83
2023-02-11T10:30:46.914Z,100091.63
2023-02-11T10:33:18.396Z,100086.36
2023-02-11T10:35:47.804Z,100085.49
2023-02-11T10:38:16.283Z,100083.15
2023-02-11T10:40:44.765Z,100082.55
2023-02-11T10:43:16.556Z,100080.32
2023-02-11T10:45:48.395Z,100072.21
2023-02-11T10:48:43.829Z,100062.84
2023-02-11T10:51:34.540Z,100056.30
2023-02-11T10:54:08.430Z,100053.22
2023-02-11T10:56:38.269Z,100051.89
2023-02-11T10:59:31.001Z,100044.23
2023-02-11T11:02:06.316Z,100042.30
2023-02-11T11:04:37.062Z,100037.52
2023-02-11T11:07:28.297Z,100031.54
2023-02-11T11:09:59.439Z,100025.52
2023-02-11T11:12:35.622Z,100017.54
2023-02-11T11:15:10.833Z,100013.50
2023-02-11T11:17:45.630Z,99996.90
2023-02-11T11:20:14.585Z,99990.14
2023-02-11T11:22:43.252Z,99989.60
2023-02-11T11:25:28.406Z,99984.36
2023-02-11T11:27:58.343Z,99975.64
2023-02-11T11:30:33.564Z,99968.84
2023-02-11T11:33:02.379Z,99969.92
2023-02-11T11:35:33.319Z,99955.18
2023-02-11T11:38:04.269Z,99952.41
2023-02-11T11:40:36.222Z,99942.35
2023-02-11T11:43:14.443Z,99938.28
2023-02-11T11:45:59.000Z,99939.63
2023-02-11T11:48:33.220Z,99927.61
2023-02-11T11:51:02.642Z,99926.07
2023-02-11T11:53:56.335Z,99920.38
2023-02-11T11:56:26.956Z,99910.02
2023-02-11T11:58:56.025Z,99905.65
2023-02-11T12:01:41.355Z,99900.17
2023-02-11T12:04:28.529Z,99889.33
2023-02-11T12:07:16.779Z,99883.08
2023-02-11T12:10:22.543Z,99875.27
2023-02-11T12:13:17.852Z,99866.34
2023-02-11T12:15:52.174Z,99857.16
2023-02-11T12:18:58.543Z,99857.95
2023-02-11T12:21:51.090Z,99842.48
2023-02-11T12:24:42.512Z,99839.40
2023-02-11T12:27:43.254Z,99837.02
2023-02-11T12:30:11.841Z,99821.84
2023-02-11T12:33:02.957Z,99823.42
2023-02-11T12:35:38.739Z,99819.35
2023-02-11T12:38:21.636Z,99810.66
2023-02-11T12:41:14.798Z,99814.01
2023-02-11T12:43:44.151Z,99807.27
2023-02-11T12:46:35.329Z,99794.39
2023-02-11T12:49:41.796Z,99791.86
2023-02-11T12:52:29.220Z,99792.17
2023-02-11T12:55:00.884Z,99782.57
2023-02-11T12:57:32.345Z,99775.20
2023-02-11T13:00:22.836Z,99766.86
2023-02-11T13:03:01.885Z,99760.59
2023-02-11T13:05:50.023Z,99758.97
2023-02-11T13:08:23.926Z,99758.50
2023-02-11T13:10:57.133Z,99745.33
2023-02-11T13:13:34.007Z,99742.76
2023-02-11T13:16:08.152Z,99734.58
2023-02-11T13:18:48.584Z,99720.73
2023-02-11T13:21:18.000Z,99728.35
2023-02-11T13:23:48.315Z,99718.98
2023-02-11T13:26:30.204Z,99720.14
2023-02-11T13:29:23.274Z,99714.39
2023-02-11T13:31:56.055Z,99707.83
2023-02-11T13:34:44.135Z,99712.75
2023-02-11T13:37:23.533Z,99720.77
2023-02-11T13:40:01.568Z,99701.65
2023-02-11T13:42:30.550Z,99708.64
2023-02-11T13:44:58.943Z,99712.33
2023-02-11T13:47:34.066Z,99709.73
2023-02-11T13:50:04.379Z,99708.71
2023-02-11T13:52:37.504Z,99708.29
2023-02-11T13:55:14.984Z,99705.99
2023-02-11T13:57:43.770Z,99709.41
2023-02-11T14:00:34.476Z,99710.96
2023-02-11T14:03:31.042Z,99711.75
2023-02-11T14:06:27.711Z,99715.73
2023-02-11T14:09:14.681Z,99707.98
2023-02-11T14:11:51.970Z,99699.90
2023-02-11T14:14:22.093Z,99689.95
2023-02-11T14:16:59.971Z,99682.96
2023-02-11T14:19:38.525Z,99672.19
2023-02-11T14:22:13.750Z,99662.48
2023-02-11T14:24:59.590Z,99662.50
2023-02-11T14:27:41.961Z,99659.15
2023-02-11T14:30:29.105Z,99651.83
2023-02-11T14:33:19.889Z,99644.00
2023-02-11T14:36:04.039Z,99636.73
2023-02-11T14:38:59.046Z,99630.14
2023-02-11T14:41:42.718Z,99630.28
2023-02-11T14:44:15.266Z,99623.67
2023-02-11T14:46:46.399Z,99621.52
2023-02-11T14:49:33.120Z,99620.19
2023-02-11T14:52:22.503Z,99609.62
2023-02-11T14:54:51.190Z,99604.79
2023-02-11T14:57:20.569Z,99598.92
2023-02-11T14:59:59.240Z,99593.07
2023-02-11T15:02:34.249Z,99595.70
2023-02-11T15:05:29.249Z,99597.95
2023-02-11T15:07:59.731Z,99605.05
2023-02-11T15:10:32.257Z,99608.10
2023-02-11T15:13:01.459Z,99602.92
2023-02-11T15:15:30.866Z,99595.84
2023-02-11T15:18:01.290Z,99588.98
2023-02-11T15:20:32.045Z,99594.15
2023-02-11T15:23:02.866Z,99590.56
2023-02-11T15:25:34.044Z,99581.70
2023-02-11T15:28:21.654Z,99588.11
2023-02-11T15:31:00.745Z,99592.46
2023-02-11T15:33:32.901Z,99597.42
2023-02-11T15:36:02.048Z,99595.66
2023-02-11T15:38:30.949Z,99590.39
2023-02-11T15:41:03.216Z,99589.98
2023-02-11T15:43:45.321Z,99583.41
2023-02-11T15:46:23.606Z,99580.42
2023-02-11T15:48:53.239Z,99579.38
2023-02-11T15:51:22.869Z,99578.81
2023-02-11T15:54:02.284Z,99576.24
2023-02-11T15:56:44.504Z,99579.98
2023-02-11T15:59:21.370Z,99575.45
2023-02-11T16:01:49.875Z,99576.52
2023-02-11T16:04:23.913Z,99574.63
2023-02-11T16:06:53.406Z,99567.20
2023-02-11T16:09:26.983Z,99559.84
2023-02-11T16:11:59.031Z,99556.86
2023-02-11T16:14:27.423Z,99556.67
2023-02-11T16:17:22.632Z,99553.73
2023-02-11T16:19:51.222Z,99550.65
2023-02-11T16:22:30.265Z,99552.84
2023-02-11T16:24:59.464Z,99550.58
2023-02-11T16:27:37.662Z,99554.56
2023-02-11T16:30:07.377Z,99546.73
2023-02-11T16:32:35.756Z,99541.00
2023-02-11T16:35:09.159Z,99529.39
2023-02-11T16:37:38.248Z,99535.71
2023-02-11T16:40:07.687Z,99534.91
2023-02-11T16:42:36.241Z,99525.05
2023-02-11T16:45:05.439Z,99527.77
2023-02-11T16:47:34.682Z,99528.26
2023-02-11T16:50:03.122Z,99524.83
2023-02-11T16:52:32.012Z,99523.39
2023-02-11T16:55:01.621Z,99524.98
2023-02-11T16:57:30.496Z,99520.80
2023-02-11T16:59:59.616Z,99518.52
2023-02-11T17:02:35.091Z,99517.66
2023-02-11T17:05:05.591Z,99516.39
2023-02-11T17:07:35.608Z,99506.76
2023-02-11T17:10:07.387Z,99495.09
2023-02-11T17:12:36.059Z,99481.92
2023-02-11T17:15:07.280Z,99485.27
2023-02-11T17:17:37.527Z,99478.02
2023-02-11T17:20:07.377Z,99469.59
2023-02-11T17:22:35.721Z,99476.03
2023-02-11T17:25:04.409Z,99478.98
2023-02-11T17:27:33.142Z,99481.88
2023-02-11T17:30:01.476Z,99482.39
2023-02-11T17:32:29.915Z,99483.13
2023-02-11T17:34:59.979Z,99479.76
2023-02-11T17:37:28.972Z,99465.83
2023-02-11T17:39:57.660Z,99477.52
2023-02-11T17:42:27.066Z,99482.48
2023-02-11T17:44:55.448Z,99475.52
2023-02-11T17:47:24.885Z,99472.76
2023-02-11T17:49:53.231Z,99467.39
2023-02-11T17:52:24.495Z,99466.32
2023-02-11T17:54:53.270Z,99463.17
2023-02-11T17:57:21.855Z,99461.02
2023-02-11T17:59:50.242Z,99455.29
2023-02-11T18:02:18.927Z,99456.41
2023-02-11T18:04:49.268Z,99450.83
2023-02-11T18:07:18.963Z,99448.45
2023-02-11T18:09:49.392Z,99450.11
2023-02-11T18:12:25.453Z,99449.50
2023-02-11T18:14:57.535Z,99448.98
2023-02-11T18:17:27.044Z,99439.73
2023-02-11T18:19:57.071Z,99441.39
2023-02-11T18:22:25.528Z,99437.59
2023-02-11T18:24:54.727Z,99445.46
2023-02-11T18:27:23.730Z,99442.40
2023-02-11T18:29:52.447Z,99441.32
2023-02-11T18:32:21.204Z,99441.50
2023-02-11T18:34:49.790Z,99434.53
2023-02-11T18:37:20.632Z,99437.64
2023-02-11T18:39:49.130Z,99434.00
2023-02-11T18:42:17.494Z,99434.77
2023-02-11T18:44:46.214Z,99433.47
2023-02-11T18:47:14.461Z,99430.22
2023-02-11T18:49:42.849Z,99433.13
2023-02-11T18:52:11.429Z,99428.45
2023-02-11T18:54:41.039Z,99429.33
2023-02-11T18:57:09.623Z,99424.73
2023-02-11T18:59:39.438Z,99425.06
2023-02-11T19:02:09.642Z,99418.34
2023-02-11T19:04:38.628Z,99417.67
2023-02-11T19:07:07.042Z,99411.49
2023-02-11T19:09:35.730Z,99409.17
2023-02-11T19:12:04.940Z,99410.81
2023-02-11T19:14:34.422Z,99410.60
2023-02-11T19:18:47.774Z,99404.45
2023-02-11T19:21:16.159Z,99400.72
2023-02-11T19:23:44.537Z,99398.48
2023-02-11T19:26:13.120Z,99403.27
2023-02-11T19:28:41.707Z,99397.70
2023-02-11T19:31:10.358Z,99398.64
2023-02-11T19:33:40.002Z,99394.89
2023-02-11T19:36:09.716Z,99391.29
2023-02-11T19:38:38.403Z,99391.82
2023-02-11T19:41:06.786Z,99388.21
2023-02-11T19:43:35.165Z,99386.31
2023-02-11T19:46:04.349Z,99385.11
2023-02-11T19:48:32.745Z,99387.45
2023-02-11T19:51:12.043Z,99382.58
2023-02-11T19:53:42.410Z,99384.20
2023-02-11T19:56:11.099Z,99378.24
2023-02-11T19:58:40.092Z,99364.29
2023-02-11T20:01:19.698Z,99371.23
2023-02-11T20:03:51.952Z,99368.24
2023-02-11T20:06:23.666Z,99369.40
2023-02-11T20:08:59.029Z,99366.96
2023-02-11T20:11:29.001Z,99361.16
2023-02-11T20:13:57.613Z,99361.84
2023-02-11T20:16:44.640Z,99360.21
2023-02-11T20:19:18.377Z,99355.77
2023-02-11T20:21:48.184Z,99355.38
2023-02-11T20:24:17.665Z,99351.05
2023-02-11T20:26:48.602Z,99345.84
2023-02-11T20:29:18.076Z,99347.88
2023-02-11T20:31:46.684Z,99348.11
2023-02-11T20:34:17.994Z,99348.83
2023-02-11T20:36:52.237Z,99344.64
2023-02-11T20:39:22.574Z,99343.83
2023-02-11T20:41:51.595Z,99347.45
2023-02-11T20:44:22.554Z,99347.70
2023-02-11T20:46:52.032Z,99342.30
2023-02-11T20:49:22.696Z,99339.83
2023-02-11T20:51:52.787Z,99342.05
2023-02-11T20:54:21.475Z,99341.51
2023-02-11T20:56:51.391Z,99340.20
2023-02-11T20:59:20.182Z,99341.66
2023-02-11T21:01:56.465Z,99337.33
2023-02-11T21:04:28.013Z,99341.54
2023-02-11T21:06:58.748Z,99344.27
2023-02-11T21:09:29.614Z,99341.72
2023-02-11T21:12:03.495Z,99339.25
2023-02-11T21:14:34.335Z,99337.48
2023-02-11T21:17:02.811Z,99337.66
2023-02-11T21:19:31.829Z,99335.71
2023-02-11T21:22:02.031Z,99338.97
2023-02-11T21:24:33.180Z,99333.31
2023-02-11T21:27:07.814Z,99334.15
2023-02-11T21:29:52.676Z,99330.87
2023-02-11T21:32:22.059Z,99328.06
2023-02-11T21:34:50.466Z,99327.79
2023-02-11T21:37:18.770Z,99325.73
2023-02-11T21:39:47.634Z,99326.47
2023-02-11T21:42:16.220Z,99323.35
2023-02-11T21:44:44.702Z,99321.08
2023-02-11T21:47:13.598Z,99319.55
2023-02-11T21:49:43.001Z,99319.09
2023-02-11T21:52:12.717Z,99319.41
2023-02-11T21:54:40.993Z,99318.39
2023-02-11T21:57:09.476Z,99324.52
2023-02-11T21:59:37.892Z,99321.80
2023-02-11T22:02:06.644Z,99318.86
2023-02-11T22:04:35.048Z,99317.57
2023-02-11T22:07:03.614Z,99313.80
2023-02-11T22:09:34.349Z,99312.05
2023-02-11T22:12:02.626Z,99315.37
2023-02-11T22:14:32.384Z,99312.39
2023-02-11T22:17:01.488Z,99316.69
2023-02-11T22:19:30.123Z,99309.59
2023-02-11T22:21:59.017Z,99311.27
2023-02-11T22:24:27.601Z,99311.69
2023-02-11T22:26:56.804Z,99316.73
2023-02-11T22:29:25.281Z,99316.70
2023-02-11T22:31:53.722Z,99320.13
2023-02-11T22:34:22.352Z,99319.98
2023-02-11T22:36:52.471Z,99309.59
2023-02-11T22:39:21.159Z,99318.70
2023-02-11T22:41:49.640Z,99319.07
2023-02-11T22:44:18.018Z,99319.23
2023-02-11T22:46:46.503Z,99323.35
2023-02-11T22:49:16.138Z,99323.02
2023-02-11T22:51:44.499Z,99320.69
2023-02-11T22:54:15.354Z,99317.21
2023-02-11T22:56:43.812Z,99320.58
2023-02-11T22:59:14.647Z,99326.80
2023-02-11T23:01:43.467Z,99326.25
2023-02-11T23:04:13.502Z,99330.66
2023-02-11T23:06:41.846Z,99334.72
2023-02-11T23:09:14.317Z,99331.86
2023-02-11T23:11:43.007Z,99332.44
2023-02-11T23:14:12.443Z,99332.31
2023-02-11T23:16:42.329Z,99330.23
2023-02-11T23:19:11.120Z,99328.11
2023-02-11T23:21:39.713Z,99325.55
2023-02-11T23:24:14.869Z,99332.27
2023-02-11T23:26:43.641Z,99334.08
2023-02-11T23:29:12.530Z,99335.05
2023-02-11T23:31:44.123Z,99340.15
2023-02-11T23:34:17.198Z,99341.38
2023-02-11T23:36:45.567Z,99346.60
2023-02-11T23:39:15.587Z,99345.28
2023-02-11T23:41:45.228Z,99348.29
2023-02-11T23:44:13.590Z,99349.54
2023-02-11T23:46:42.469Z,99349.70
2023-02-11T23:49:11.160Z,99354.59
2023-02-11T23:51:39.641Z,99354.56
2023-02-11T23:54:08.121Z,99362.45
2023-02-11T23:56:39.371Z,99367.98
2023-02-11T23:59:08.055Z,99370.86
